Time;durP1;ratioP1;P1;durP2;ratioP2;P2;SDS_P1;SDS_P2;PMS_P1;PMS_P2;Temp;Humidity;BMP_temperature;BMP_pressure;BME280_temperature;BME280_humidity;BME280_pressure;Samples;Min_cycle;Max_cycle;Signal;HPM_P1;HPM_P2
2022/09/23 00:00:46;;;;;;;1.75;0.82;;;;;;;27.90;32.43;101313.50;5091605;28;20113;-51
2022/09/23 00:03:15;;;;;;;2.15;0.82;;;;;;;27.83;33.12;101313.13;5091741;28;20027;-53
2022/09/23 00:05:42;;;;;;;1.08;0.90;;;;;;;27.83;32.83;101310.38;5095091;28;20036;-53
2022/09/23 00:08:11;;;;;;;3.13;0.90;;;;;;;27.69;33.23;101306.78;5106670;28;20077;-53
2022/09/23 00:10:39;;;;;;;1.92;1.00;;;;;;;27.52;33.37;101304.69;5111105;28;20023;-51
2022/09/23 00:13:05;;;;;;;1.92;1.10;;;;;;;27.36;33.55;101309.72;5091864;28;20085;-47
2022/09/23 00:15:37;;;;;;;3.97;1.33;;;;;;;27.36;32.96;101304.22;5099044;28;20035;-48
2022/09/23 00:18:03;;;;;;;2.25;1.00;;;;;;;27.32;33.06;101304.03;5081264;28;20031;-47
2022/09/23 00:20:30;;;;;;;2.47;0.80;;;;;;;27.30;33.33;101295.25;5092562;28;20137;-47
2022/09/23 00:22:57;;;;;;;3.00;0.93;;;;;;;27.23;33.13;101299.56;5107070;28;20024;-50
2022/09/23 00:25:24;;;;;;;1.65;0.85;;;;;;;26.94;33.23;101302.59;5099984;28;20028;-48
2022/09/23 00:27:50;;;;;;;30.75;4.50;;;;;;;27.08;33.59;101304.25;5092514;28;20031;-47
2022/09/23 00:30:17;;;;;;;27.20;2.40;;;;;;;27.00;34.02;101302.19;5107778;28;20574;-47
2022/09/23 00:32:43;;;;;;;2.15;0.88;;;;;;;27.08;33.80;101304.25;5106581;28;20373;-47
2022/09/23 00:35:09;;;;;;;2.20;0.90;;;;;;;26.93;32.26;101301.78;5091832;28;20036;-50
2022/09/23 00:37:35;;;;;;;2.95;0.90;;;;;;;26.77;32.77;101301.28;5105308;28;20028;-49
2022/09/23 00:40:02;;;;;;;4.93;1.00;;;;;;;26.80;33.57;101303.38;5110483;28;20463;-47
2022/09/23 00:42:28;;;;;;;5.25;1.38;;;;;;;26.57;32.58;101307.94;5111049;28;20031;-48
2022/09/23 00:44:58;;;;;;;2.80;1.08;;;;;;;26.63;33.07;101307.84;5096862;28;20484;-48
2022/09/23 00:47:42;;;;;;;1.70;1.02;;;;;;;26.52;32.91;101310.78;5089204;28;20384;-49
2022/09/23 00:50:14;;;;;;;2.17;0.90;;;;;;;26.47;33.51;101313.59;5075651;28;20495;-48
2022/09/23 00:52:41;;;;;;;7.28;1.15;;;;;;;26.39;33.92;101314.28;5081166;28;20135;-48
2022/09/23 00:55:14;;;;;;;2.17;0.90;;;;;;;26.33;34.17;101310.00;5097986;28;20031;-49
2022/09/23 00:57:42;;;;;;;1.02;0.80;;;;;;;26.26;33.78;101315.03;5113533;28;20038;-52
2022/09/23 01:00:09;;;;;;;2.53;0.80;;;;;;;26.23;34.39;101310.16;5100651;28;20058;-51
2022/09/23 01:02:36;;;;;;;2.45;1.08;;;;;;;26.17;34.21;101311.38;5094542;28;20035;-48
2022/09/23 01:05:06;;;;;;;1.98;0.80;;;;;;;26.03;34.75;101314.84;5086726;28;20409;-51
2022/09/23 01:07:33;;;;;;;1.42;0.93;;;;;;;26.08;34.74;101307.66;5079491;28;20020;-47
2022/09/23 01:10:01;;;;;;;1.63;0.98;;;;;;;25.95;35.47;101311.97;5090646;28;20686;-49
2022/09/23 01:13:12;;;;;;;6.13;1.50;;;;;;;26.04;35.75;101301.94;5093562;28;20352;-47
2022/09/23 01:16:04;;;;;;;3.17;1.00;;;;;;;26.07;36.26;101301.38;5087203;28;20384;-48
2022/09/23 01:18:42;;;;;;;1.27;0.90;;;;;;;26.10;36.51;101297.22;5088919;28;20404;-47
2022/09/23 01:21:37;;;;;;;4.50;1.70;;;;;;;26.00;36.52;101301.75;5090775;28;20051;-47
2022/09/23 01:24:13;;;;;;;1.55;0.80;;;;;;;26.02;36.81;101310.47;5076374;28;20032;-47
2022/09/23 01:27:00;;;;;;;1.48;1.05;;;;;;;25.82;37.72;101305.34;5086593;28;20542;-47
2022/09/23 01:29:26;;;;;;;2.78;0.95;;;;;;;25.64;37.09;101306.91;5094622;28;20036;-47
2022/09/23 01:31:59;;;;;;;3.70;1.10;;;;;;;25.73;36.64;101301.59;5095028;28;20098;-47
2022/09/23 01:34:33;;;;;;;1.77;1.05;;;;;;;25.58;35.88;101304.53;5100140;28;20074;-47
2022/09/23 01:37:06;;;;;;;2.40;0.80;;;;;;;25.31;37.31;101303.25;5095088;28;20074;-48
2022/09/23 01:39:38;;;;;;;1.50;0.90;;;;;;;25.36;36.40;101305.09;5094527;28;20055;-48
2022/09/23 01:42:21;;;;;;;13.50;1.50;;;;;;;25.00;38.21;101303.59;5094927;28;20103;-49
2022/09/23 01:45:20;;;;;;;13.20;1.92;;;;;;;24.91;38.65;101308.06;5094668;28;20089;-48
2022/09/23 01:47:50;;;;;;;2.13;1.08;;;;;;;24.94;37.85;101307.50;5092063;28;20043;-48
2022/09/23 01:53:11;;;;;;;2.63;1.10;;;;;;;24.58;39.27;101308.97;5094957;28;20503;-49
2022/09/23 01:55:42;;;;;;;2.33;1.15;;;;;;;24.53;39.59;101303.53;5094913;28;20051;-51
2022/09/23 01:58:27;;;;;;;1.92;1.02;;;;;;;24.46;40.66;101312.09;5094599;28;20016;-51
2022/09/23 02:01:03;;;;;;;;;;;;;;;24.45;42.07;101311.28;5074562;28;20111;-49
2022/09/23 02:03:58;;;;;;;4.47;1.40;;;;;;;24.31;43.68;101310.28;5074429;28;20264;-48
2022/09/23 02:06:33;;;;;;;5.60;2.10;;;;;;;24.02;45.04;101314.88;5072965;28;20082;-49
2022/09/23 02:09:05;;;;;;;6.05;2.25;;;;;;;23.68;46.42;101312.91;5073854;28;20385;-49
2022/09/23 02:11:35;;;;;;;10.15;2.30;;;;;;;23.88;46.30;101317.47;5073749;28;20043;-49
2022/09/23 02:14:15;;;;;;;4.00;1.75;;;;;;;24.05;45.97;101317.06;5074203;28;20031;-49
2022/09/23 02:16:46;;;;;;;4.40;2.03;;;;;;;23.86;46.77;101314.97;5073681;28;20031;-49
2022/09/23 02:19:23;;;;;;;8.43;1.85;;;;;;;23.89;46.40;101319.91;5073434;28;20456;-49
2022/09/23 02:21:57;;;;;;;7.57;2.95;;;;;;;23.68;47.04;101319.19;5073807;28;20549;-49
2022/09/23 02:24:33;;;;;;;8.05;2.50;;;;;;;23.66;47.54;101317.88;5073735;28;20534;-47
2022/09/23 02:27:20;;;;;;;9.90;2.50;;;;;;;23.42;48.22;101320.41;5073768;28;20082;-48
2022/09/23 02:30:04;;;;;;;6.10;2.25;;;;;;;23.33;48.20;101327.56;5073523;28;20103;-48
2022/09/23 02:32:45;;;;;;;5.53;1.97;;;;;;;23.38;48.84;101327.53;5073993;28;20373;-47
2022/09/23 02:35:21;;;;;;;5.53;2.47;;;;;;;23.30;48.96;101328.91;5073638;28;20326;-48
2022/09/23 02:38:32;;;;;;;8.98;2.50;;;;;;;23.11;49.47;101322.44;5074035;28;20146;-48
2022/09/23 02:41:16;;;;;;;8.23;3.08;;;;;;;23.07;49.57;101326.81;5073217;28;20482;-49
2022/09/23 02:43:53;;;;;;;6.07;2.50;;;;;;;23.06;49.58;101325.19;5073634;28;20028;-50
2022/09/23 02:46:20;;;;;;;9.40;3.47;;;;;;;22.99;49.87;101330.94;5073073;28;20566;-50
2022/09/23 02:49:12;;;;;;;8.05;2.33;;;;;;;22.74;50.86;101323.59;5078961;28;20020;-50
2022/09/23 02:51:39;;;;;;;5.82;2.55;;;;;;;22.78;50.86;101327.41;5087141;28;20054;-47
2022/09/23 02:54:09;;;;;;;6.82;2.33;;;;;;;22.66;51.13;101332.34;5093695;28;20116;-48
2022/09/23 02:56:36;;;;;;;8.05;2.33;;;;;;;22.64;51.10;101327.13;5091585;28;20028;-48
2022/09/23 02:59:03;;;;;;;11.57;2.95;;;;;;;22.59;51.49;101337.25;5085669;28;20059;-49
2022/09/23 03:02:12;;;;;;;7.93;2.70;;;;;;;22.50;51.76;101339.72;5077884;28;20028;-49
2022/09/23 03:04:49;;;;;;;9.15;2.75;;;;;;;22.54;52.12;101331.78;5070644;28;20029;-48
2022/09/23 03:07:24;;;;;;;9.88;2.72;;;;;;;22.41;52.09;101327.72;5077677;28;20060;-48
2022/09/23 03:10:14;;;;;;;5.72;2.70;;;;;;;22.25;52.64;101328.81;5078421;28;20024;-49
2022/09/23 03:12:48;;;;;;;12.52;3.33;;;;;;;22.17;52.76;101327.44;5073041;28;20032;-49
2022/09/23 03:15:39;;;;;;;5.93;2.58;;;;;;;22.12;52.84;101332.88;5083020;28;20381;-48
2022/09/23 03:18:17;;;;;;;8.77;2.78;;;;;;;22.02;53.01;101335.56;5089283;28;20081;-51
2022/09/23 03:20:54;;;;;;;6.07;2.30;;;;;;;21.92;53.37;101339.09;5092539;28;20131;-50
2022/09/23 03:23:27;;;;;;;14.60;2.92;;;;;;;21.89;53.39;101342.38;5091226;28;20036;-52
2022/09/23 03:25:56;;;;;;;8.45;3.03;;;;;;;21.84;53.99;101339.63;5091265;28;20135;-48
2022/09/23 03:28:24;;;;;;;10.60;2.60;;;;;;;21.76;54.43;101349.13;5091759;28;20020;-48
2022/09/23 03:30:53;;;;;;;6.57;2.80;;;;;;;21.68;54.54;101352.38;5091257;28;20134;-49
2022/09/23 03:33:24;;;;;;;8.00;3.40;;;;;;;21.63;54.88;101349.66;5096449;28;20023;-49
2022/09/23 03:39:04;;;;;;;8.52;2.88;;;;;;;21.47;54.87;101351.47;5093150;28;20518;-47
2022/09/23 03:41:37;;;;;;;7.82;2.72;;;;;;;21.42;55.14;101358.81;5092524;28;20042;-47
2022/09/23 03:44:06;;;;;;;8.18;2.60;;;;;;;21.40;55.41;101367.25;5091812;28;20089;-48
2022/09/23 03:46:34;;;;;;;6.47;2.58;;;;;;;21.35;55.55;101367.22;5079918;28;20032;-47
2022/09/23 03:49:15;;;;;;;4.38;2.00;;;;;;;21.28;54.80;101367.44;5093639;27;20074;-48
2022/09/23 03:51:41;;;;;;;4.05;1.92;;;;;;;21.17;53.27;101371.19;5089752;28;20043;-47
2022/09/23 03:54:08;;;;;;;7.18;1.83;;;;;;;21.08;53.30;101370.03;5080911;28;20024;-50
2022/09/23 03:56:35;;;;;;;8.15;2.38;;;;;;;21.02;52.62;101373.81;5072171;28;20029;-48
2022/09/23 03:59:01;;;;;;;7.38;3.28;;;;;;;20.77;52.20;101369.03;5071922;28;20024;-48
2022/09/23 04:01:28;;;;;;;4.80;2.40;;;;;;;20.72;52.33;101367.09;5071890;28;20020;-47
2022/09/23 04:03:54;;;;;;;3.20;2.17;;;;;;;20.75;52.39;101368.47;5089340;28;20126;-48
2022/09/23 04:06:21;;;;;;;4.13;2.40;;;;;;;20.69;52.41;101369.50;5102270;28;20107;-47
2022/09/23 04:08:47;;;;;;;7.43;2.55;;;;;;;20.64;52.07;101375.72;5112344;28;20038;-48
2022/09/23 04:11:14;;;;;;;5.88;2.50;;;;;;;20.59;51.79;101386.56;5112067;28;20115;-49
2022/09/23 04:13:40;;;;;;;5.43;2.30;;;;;;;20.62;51.76;101382.53;5112550;28;20111;-50
2022/09/23 04:16:06;;;;;;;3.75;2.00;;;;;;;20.40;52.34;101386.13;5112270;28;20027;-48
2022/09/23 04:18:32;;;;;;;6.38;2.05;;;;;;;20.23;52.17;101383.50;5112085;28;20102;-50
2022/09/23 04:20:59;;;;;;;3.90;2.35;;;;;;;20.23;52.25;101388.94;5112226;28;20048;-49
2022/09/23 04:23:26;;;;;;;5.40;2.33;;;;;;;20.03;52.49;101391.44;5100043;28;20031;-49
2022/09/23 04:25:53;;;;;;;5.78;2.28;;;;;;;20.05;51.97;101378.44;5091849;28;20031;-51
2022/09/23 04:28:19;;;;;;;6.32;2.22;;;;;;;19.82;52.21;101379.53;5091421;28;20024;-50
2022/09/23 04:30:47;;;;;;;3.83;2.08;;;;;;;19.61;53.03;101373.06;5091563;28;20031;-48
2022/09/23 04:33:15;;;;;;;4.50;1.60;;;;;;;19.44;53.17;101377.69;5074550;28;20063;-49
2022/09/23 04:35:44;;;;;;;4.63;1.60;;;;;;;19.03;53.87;101377.13;5076325;28;20028;-50
2022/09/23 04:38:11;;;;;;;3.83;1.40;;;;;;;18.93;54.03;101382.38;5071230;28;20031;-48
2022/09/23 04:40:38;;;;;;;4.53;1.40;;;;;;;18.61;54.91;101374.84;5103838;28;20027;-49
2022/09/23 04:43:04;;;;;;;3.55;1.40;;;;;;;18.15;56.14;101376.72;5090673;28;20100;-51
2022/09/23 04:45:30;;;;;;;3.65;1.55;;;;;;;17.88;57.16;101373.00;5091632;28;20028;-48
2022/09/23 04:47:57;;;;;;;6.03;2.50;;;;;;;17.52;58.30;101374.94;5091113;28;20030;-47
2022/09/23 04:50:25;;;;;;;4.20;2.00;;;;;;;17.49;58.89;101378.16;5091218;28;20377;-48
2022/09/23 04:52:52;;;;;;;5.00;2.40;;;;;;;17.39;58.45;101372.50;5091205;28;20063;-47
2022/09/23 04:55:19;;;;;;;4.22;1.77;;;;;;;17.25;59.00;101368.41;5071460;28;20448;-50
2022/09/23 04:57:45;;;;;;;3.60;2.00;;;;;;;17.26;58.80;101370.84;5100584;28;20023;-49
2022/09/23 05:00:12;;;;;;;2.58;1.63;;;;;;;17.34;58.94;101375.09;5111663;28;20062;-49
2022/09/23 05:02:43;;;;;;;2.90;1.50;;;;;;;17.38;58.13;101370.88;5111586;28;20053;-48
2022/09/23 05:05:10;;;;;;;6.55;1.90;;;;;;;17.42;58.48;101372.03;5111802;28;20468;-48
2022/09/23 05:07:36;;;;;;;2.80;1.27;;;;;;;17.29;58.62;101375.81;5111625;28;20045;-48
2022/09/23 05:10:03;;;;;;;4.18;1.30;;;;;;;17.28;58.70;101366.06;5111419;28;20032;-48
2022/09/23 05:12:29;;;;;;;1.85;1.27;;;;;;;17.35;58.72;101364.03;5111801;28;20028;-48
2022/09/23 05:14:55;;;;;;;6.22;1.73;;;;;;;17.30;59.05;101373.94;5111059;28;20085;-49
2022/09/23 05:17:21;;;;;;;2.05;1.27;;;;;;;17.24;59.21;101367.59;5111367;28;20024;-49
2022/09/23 05:19:47;;;;;;;4.85;1.60;;;;;;;17.30;58.44;101360.41;5088839;28;20059;-49
2022/09/23 05:22:13;;;;;;;2.97;1.58;;;;;;;17.11;59.26;101360.53;5079156;28;20031;-51
2022/09/23 05:24:40;;;;;;;2.58;1.50;;;;;;;17.15;58.97;101361.69;5090895;28;20028;-49
2022/09/23 05:27:06;;;;;;;3.03;1.50;;;;;;;17.28;58.90;101357.13;5089939;28;20503;-49
2022/09/23 05:29:33;;;;;;;3.03;1.40;;;;;;;17.50;58.34;101351.91;5087495;28;20042;-49
2022/09/23 05:32:03;;;;;;;2.53;1.40;;;;;;;17.49;58.25;101361.91;5091033;28;20032;-49
2022/09/23 05:34:29;;;;;;;3.20;1.70;;;;;;;17.51;58.27;101353.53;5090995;28;20111;-49
2022/09/23 05:36:57;;;;;;;1.98;1.27;;;;;;;17.56;58.20;101361.75;5091457;28;20024;-49
2022/09/23 05:39:23;;;;;;;1.67;1.50;;;;;;;17.72;57.73;101360.19;5090223;28;20040;-49
2022/09/23 05:41:49;;;;;;;2.22;1.40;;;;;;;17.83;57.44;101356.66;5093546;28;20032;-49
2022/09/23 05:44:15;;;;;;;2.92;1.50;;;;;;;17.90;57.30;101360.84;5112953;27;20216;-47
2022/09/23 05:46:42;;;;;;;3.75;1.85;;;;;;;17.84;60.83;101356.41;5114823;28;20028;-48
2022/09/23 05:49:08;;;;;;;6.63;3.00;;;;;;;17.91;63.15;101348.13;5114985;28;20023;-48
2022/09/23 05:51:34;;;;;;;7.72;2.28;;;;;;;17.98;65.14;101350.69;5115095;28;20051;-47
2022/09/23 05:54:04;;;;;;;13.50;3.38;;;;;;;17.99;67.13;101353.16;5114949;28;20024;-47
2022/09/23 05:56:31;;;;;;;10.52;2.92;;;;;;;18.20;67.07;101349.72;5115004;28;20087;-48
2022/09/23 05:58:59;;;;;;;11.52;3.28;;;;;;;18.15;68.00;101355.06;5097607;28;20031;-51
2022/09/23 06:01:27;;;;;;;6.20;2.20;;;;;;;17.67;63.24;101359.03;5094532;28;20468;-48
2022/09/23 06:03:56;;;;;;;7.20;1.65;;;;;;;17.19;61.69;101350.41;5093159;28;20020;-47
2022/09/23 06:06:27;;;;;;;5.05;1.67;;;;;;;16.95;61.25;101355.84;5104098;28;20440;-48
2022/09/23 06:08:54;;;;;;;4.25;1.55;;;;;;;16.93;61.15;101349.84;5092127;28;20031;-47
2022/09/23 06:11:20;;;;;;;1.73;1.30;;;;;;;17.07;60.96;101350.44;5094515;28;20106;-47
2022/09/23 06:13:48;;;;;;;2.78;1.40;;;;;;;17.28;60.03;101346.28;5093758;28;20036;-48
2022/09/23 06:16:15;;;;;;;2.72;1.42;;;;;;;17.37;59.78;101348.38;5090653;28;20193;-47
2022/09/23 06:18:43;;;;;;;2.85;1.40;;;;;;;17.39;59.09;101350.88;5073876;28;20377;-47
2022/09/23 06:21:15;;;;;;;1.70;1.48;;;;;;;17.36;58.94;101346.72;5076124;28;20040;-47
2022/09/23 06:23:42;;;;;;;2.13;1.20;;;;;;;17.35;58.51;101345.09;5094308;28;20024;-47
2022/09/23 06:26:11;;;;;;;2.67;1.27;;;;;;;17.33;58.57;101349.94;5093863;28;20431;-47
2022/09/23 06:28:40;;;;;;;3.30;1.42;;;;;;;17.46;58.15;101342.59;5093769;28;20024;-48
2022/09/23 06:31:10;;;;;;;4.60;1.42;;;;;;;17.43;58.14;101341.19;5093765;28;20016;-47
2022/09/23 06:33:36;;;;;;;2.60;1.55;;;;;;;17.58;58.16;101335.25;5094120;28;20469;-47
2022/09/23 06:36:05;;;;;;;2.22;1.40;;;;;;;17.36;58.47;101340.50;5093987;28;20024;-47
2022/09/23 06:38:34;;;;;;;2.83;1.60;;;;;;;17.47;58.10;101339.66;5093996;28;20444;-48
2022/09/23 06:41:02;;;;;;;2.67;1.52;;;;;;;17.52;58.21;101342.47;5093451;28;20027;-48
2022/09/23 06:43:29;;;;;;;4.47;1.40;;;;;;;17.18;58.90;101341.47;5093411;28;20086;-48
2022/09/23 06:45:57;;;;;;;4.90;1.45;;;;;;;17.14;59.26;101332.19;5093791;28;20028;-48
2022/09/23 06:48:25;;;;;;;2.45;1.30;;;;;;;17.14;59.09;101324.91;5093717;28;20089;-48
2022/09/23 06:50:52;;;;;;;1.95;1.30;;;;;;;16.95;60.08;101331.53;5093932;28;20422;-47
2022/09/23 06:53:23;;;;;;;3.20;1.48;;;;;;;16.98;59.96;101322.09;5093239;28;20074;-48
2022/09/23 06:56:04;;;;;;;2.05;1.42;;;;;;;17.08;59.80;101325.03;5100498;28;20102;-47
2022/09/23 06:58:31;;;;;;;2.63;1.20;;;;;;;17.18;59.77;101329.84;5113440;28;20043;-48
2022/09/23 07:01:02;;;;;;;1.83;1.23;;;;;;;17.00;60.11;101331.63;5113716;28;20095;-48
2022/09/23 07:03:29;;;;;;;2.65;1.50;;;;;;;17.01;60.64;101318.94;5097507;28;20024;-48
2022/09/23 07:05:57;;;;;;;5.85;1.70;;;;;;;16.88;61.09;101330.81;5093462;28;20040;-48
2022/09/23 07:08:28;;;;;;;2.65;1.48;;;;;;;16.98;60.52;101330.22;5093496;28;20384;-48
2022/09/23 07:10:58;;;;;;;4.45;1.70;;;;;;;17.01;60.23;101333.28;5092678;28;20515;-48
2022/09/23 07:13:28;;;;;;;3.03;1.50;;;;;;;17.01;60.29;101332.44;5092741;28;20457;-48
2022/09/23 07:15:59;;;;;;;4.28;1.70;;;;;;;17.04;59.86;101331.97;5111364;28;20337;-49
2022/09/23 07:18:26;;;;;;;2.53;1.38;;;;;;;17.05;59.57;101328.22;5073611;28;20024;-51
2022/09/23 07:20:57;;;;;;;3.10;1.60;;;;;;;16.91;60.01;101324.94;5085254;28;20130;-50
2022/09/23 07:23:24;;;;;;;4.43;1.77;;;;;;;16.92;60.43;101323.03;5093267;28;20036;-48
2022/09/23 07:25:52;;;;;;;8.10;2.30;;;;;;;17.00;63.25;101317.28;5092947;28;20086;-51
2022/09/23 07:28:19;;;;;;;13.80;4.13;;;;;;;16.84;70.14;101325.06;5092660;28;20443;-48
2022/09/23 07:30:46;;;;;;;16.00;4.50;;;;;;;16.85;71.75;101317.75;5092665;28;20038;-48
2022/09/23 07:33:13;;;;;;;13.77;4.25;;;;;;;17.10;72.35;101325.59;5092824;28;20028;-48
2022/09/23 07:35:41;;;;;;;10.95;3.97;;;;;;;17.06;72.29;101333.38;5100337;28;20059;-48
2022/09/23 07:38:08;;;;;;;12.50;4.28;;;;;;;17.00;72.46;101326.22;5113044;28;20035;-48
2022/09/23 07:40:34;;;;;;;13.02;4.28;;;;;;;17.04;72.99;101330.06;5112392;28;20023;-49
2022/09/23 07:43:03;;;;;;;11.85;4.28;;;;;;;17.09;73.08;101332.91;5113309;27;20020;-48
2022/09/23 07:45:31;;;;;;;14.45;4.20;;;;;;;16.81;74.57;101333.63;5110232;28;20032;-48
2022/09/23 07:47:58;;;;;;;24.23;5.15;;;;;;;16.71;75.43;101338.81;5112766;28;20094;-48
2022/09/23 07:50:24;;;;;;;14.50;4.68;;;;;;;16.60;76.66;101336.88;5112402;28;20502;-48
2022/09/23 07:52:53;;;;;;;17.02;4.80;;;;;;;16.50;77.49;101331.25;5113267;28;20035;-48
2022/09/23 07:55:19;;;;;;;23.17;5.28;;;;;;;16.50;77.41;101337.47;5112553;28;20070;-49
2022/09/23 07:57:46;;;;;;;15.20;5.22;;;;;;;16.52;77.22;101329.94;5112692;28;20032;-48
2022/09/23 08:00:13;;;;;;;18.00;5.40;;;;;;;16.54;77.32;101341.31;5094229;28;20036;-48
2022/09/23 08:02:42;;;;;;;16.42;5.13;;;;;;;16.31;78.17;101338.59;5092460;28;20028;-48
2022/09/23 08:05:08;;;;;;;12.18;5.25;;;;;;;16.50;77.59;101337.47;5092105;28;20030;-48
2022/09/23 08:07:34;;;;;;;20.15;5.10;;;;;;;16.41;77.33;101338.03;5092207;28;20032;-48
2022/09/23 08:10:01;;;;;;;21.27;5.30;;;;;;;16.60;76.60;101342.28;5089293;28;20027;-48
2022/09/23 08:12:30;;;;;;;18.90;5.68;;;;;;;16.57;75.87;101338.16;5092068;28;20032;-48
2022/09/23 08:14:58;;;;;;;21.25;5.18;;;;;;;16.55;75.94;101331.38;5092534;28;20090;-47
2022/09/23 08:17:25;;;;;;;22.48;5.10;;;;;;;16.38;75.87;101339.34;5091871;28;20038;-48
2022/09/23 08:19:51;;;;;;;9.68;3.83;;;;;;;16.24;74.93;101332.47;5091540;28;20040;-49
2022/09/23 08:22:18;;;;;;;14.77;3.85;;;;;;;16.28;73.65;101334.50;5092556;28;20079;-48
2022/09/23 08:24:44;;;;;;;12.30;3.00;;;;;;;16.26;72.40;101341.16;5091521;28;20027;-48
2022/09/23 08:27:11;;;;;;;11.73;3.10;;;;;;;16.00;69.79;101343.22;5092186;28;20383;-48
2022/09/23 08:29:37;;;;;;;8.25;2.53;;;;;;;15.52;69.78;101346.72;5071449;28;20020;-48
2022/09/23 08:32:03;;;;;;;5.63;2.30;;;;;;;15.76;69.70;101342.28;5071543;28;20486;-48
2022/09/23 08:34:30;;;;;;;5.18;1.80;;;;;;;15.77;69.08;101346.66;5080921;28;20031;-48
2022/09/23 08:36:56;;;;;;;7.13;1.73;;;;;;;15.28;69.42;101348.47;5091614;28;20023;-48
2022/09/23 08:39:22;;;;;;;5.22;2.10;;;;;;;15.66;67.92;101343.91;5092034;28;20093;-48
2022/09/23 08:41:51;;;;;;;3.60;1.80;;;;;;;15.82;67.20;101348.66;5091898;28;20067;-47
2022/09/23 08:44:25;;;;;;;5.85;2.20;;;;;;;15.86;66.80;101343.63;5091679;28;20095;-47
2022/09/23 08:47:06;;;;;;;4.85;1.55;;;;;;;15.81;66.41;101349.69;5091704;28;20512;-47
2022/09/23 08:49:38;;;;;;;5.10;1.95;;;;;;;15.40;66.87;101347.72;5091421;28;20059;-49
2022/09/23 08:52:13;;;;;;;6.15;2.10;;;;;;;14.91;68.77;101344.91;5091516;28;20056;-47
2022/09/23 08:54:40;;;;;;;4.93;2.03;;;;;;;15.29;67.63;101347.41;5096420;28;20464;-49
2022/09/23 08:57:14;;;;;;;6.32;2.35;;;;;;;15.42;67.21;101346.41;5111822;28;20049;-48
2022/09/23 08:59:43;;;;;;;2.90;1.85;;;;;;;15.54;66.84;101344.59;5111555;28;20424;-48
2022/09/23 09:02:20;;;;;;;4.30;2.25;;;;;;;15.47;66.63;101349.28;5111864;28;20031;-48
2022/09/23 09:04:57;;;;;;;3.05;1.45;;;;;;;15.43;66.69;101353.47;5111959;28;20309;-49
2022/09/23 09:07:32;;;;;;;3.10;1.63;;;;;;;15.14;66.93;101356.91;5111800;28;20035;-47
2022/09/23 09:10:45;;;;;;;2.47;1.48;;;;;;;15.21;66.68;101355.81;5082854;28;20469;-47
2022/09/23 09:13:32;;;;;;;2.63;1.27;;;;;;;15.14;66.76;101365.00;5029146;28;20127;-47
2022/09/23 09:16:10;;;;;;;7.10;2.13;;;;;;;15.29;66.37;101362.78;5034145;28;20029;-47
2022/09/23 09:18:51;;;;;;;4.30;1.80;;;;;;;15.18;66.65;101361.63;5100072;28;20043;-48
2022/09/23 09:21:17;;;;;;;3.53;1.73;;;;;;;14.70;68.04;101364.16;5115628;28;20042;-48
2022/09/23 09:23:56;;;;;;;7.18;1.90;;;;;;;14.95;67.57;101358.78;5097234;28;20072;-48
2022/09/23 09:26:42;;;;;;;3.50;1.88;;;;;;;15.15;66.88;101362.06;5096064;28;20064;-48
2022/09/23 09:29:17;;;;;;;4.70;2.33;;;;;;;14.96;67.70;101360.41;5095444;28;20128;-50
2022/09/23 09:31:48;;;;;;;5.30;2.15;;;;;;;14.97;67.64;101359.38;5095090;28;20039;-50
2022/09/23 09:34:40;;;;;;;5.03;2.03;;;;;;;14.55;69.52;101366.34;5095263;28;20032;-48
2022/09/23 09:37:28;;;;;;;3.78;1.85;;;;;;;14.68;68.91;101364.41;5095104;28;20472;-48
2022/09/23 09:39:55;;;;;;;4.63;1.90;;;;;;;14.95;67.66;101356.91;5094696;28;20531;-49
2022/09/23 09:42:40;;;;;;;3.42;2.03;;;;;;;14.90;67.76;101351.34;5094773;28;20028;-48
2022/09/23 09:45:32;;;;;;;3.63;1.48;;;;;;;14.95;67.47;101356.91;5095528;28;20035;-51
2022/09/23 09:48:22;;;;;;;6.35;1.90;;;;;;;14.95;67.56;101351.50;5113945;28;20023;-50
2022/09/23 09:50:54;;;;;;;3.92;1.70;;;;;;;15.08;66.93;101349.72;5114815;28;20031;-47
2022/09/23 09:53:29;;;;;;;5.30;1.98;;;;;;;14.94;67.72;101349.03;5114662;28;20027;-48
2022/09/23 09:56:12;;;;;;;4.72;1.92;;;;;;;14.78;68.34;101353.94;5115178;27;20494;-49
2022/09/23 09:59:13;;;;;;;6.38;2.20;;;;;;;14.78;68.42;101348.56;5114761;27;20063;-48
2022/09/23 10:01:39;;;;;;;4.05;1.92;;;;;;;14.79;68.17;101352.06;5114772;28;20054;-51
2022/09/23 10:04:26;;;;;;;3.47;1.98;;;;;;;14.71;68.03;101346.94;5114143;28;20048;-51
2022/09/23 10:07:06;;;;;;;5.38;1.70;;;;;;;14.59;68.54;101346.84;5114784;28;20031;-51
2022/09/23 10:09:35;;;;;;;2.95;1.65;;;;;;;14.72;67.99;101345.94;5105456;28;20032;-51
2022/09/23 10:12:17;;;;;;;4.30;1.90;;;;;;;14.72;67.65;101343.22;5074143;28;20029;-47
2022/09/23 10:14:45;;;;;;;3.22;1.77;;;;;;;14.76;67.48;101347.94;5077663;28;20085;-48
2022/09/23 10:17:32;;;;;;;3.15;1.63;;;;;;;14.84;67.31;101346.03;5094307;28;20027;-47
2022/09/23 10:20:13;;;;;;;3.85;1.75;;;;;;;14.83;67.00;101342.50;5104745;28;20047;-47
2022/09/23 10:22:41;;;;;;;6.45;2.10;;;;;;;14.79;67.09;101344.81;5095955;28;20028;-47
2022/09/23 10:25:26;;;;;;;5.07;1.92;;;;;;;14.84;66.89;101344.16;5092378;28;20067;-48
2022/09/23 10:27:52;;;;;;;8.03;2.53;;;;;;;14.83;66.98;101350.59;5091086;28;20059;-47
2022/09/23 10:30:21;;;;;;;2.92;1.67;;;;;;;14.80;67.20;101342.94;5093734;28;20085;-47
2022/09/23 10:32:48;;;;;;;3.97;1.73;;;;;;;14.90;67.03;101340.56;5093886;28;20028;-47
2022/09/23 10:35:17;;;;;;;3.58;2.08;;;;;;;14.82;67.18;101340.84;5093728;28;20028;-47
2022/09/23 10:37:50;;;;;;;3.90;2.35;;;;;;;14.86;67.46;101343.91;5092072;28;20024;-47
2022/09/23 10:46:40;;;;;;;4.43;2.20;;;;;;;14.76;67.84;101341.72;5093796;28;20487;-47
2022/09/23 10:49:22;;;;;;;3.60;1.90;;;;;;;14.74;68.13;101336.56;5093089;28;20028;-47
2022/09/23 10:52:13;;;;;;;2.92;2.22;;;;;;;14.74;68.36;101339.25;5093472;28;20035;-47
2022/09/23 10:54:52;;;;;;;5.15;2.17;;;;;;;14.76;68.48;101330.94;5094561;28;20056;-48
2022/09/23 10:57:42;;;;;;;7.30;2.50;;;;;;;14.81;68.30;101336.50;5093549;28;20038;-50
2022/09/23 11:00:45;;;;;;;2.95;2.00;;;;;;;14.78;68.25;101332.38;5093317;28;20035;-51
2022/09/23 11:03:30;;;;;;;3.35;1.88;;;;;;;14.81;68.25;101335.69;5093236;28;20055;-48
2022/09/23 11:06:34;;;;;;;4.63;2.10;;;;;;;14.79;68.30;101331.34;5093421;28;20024;-50
2022/09/23 11:09:16;;;;;;;3.65;2.08;;;;;;;14.69;68.73;101333.69;5068973;28;20042;-50
2022/09/23 11:12:00;;;;;;;4.53;2.00;;;;;;;14.51;69.40;101322.88;5094820;28;20044;-47
2022/09/23 11:14:49;;;;;;;4.60;2.30;;;;;;;14.65;69.07;101323.59;5092792;28;20487;-47
2022/09/23 11:17:52;;;;;;;4.93;2.30;;;;;;;14.50;69.30;101324.75;5093102;28;20023;-47
2022/09/23 11:20:36;;;;;;;3.42;2.03;;;;;;;14.44;69.52;101322.91;5095969;28;20048;-47
2022/09/23 11:23:56;;;;;;;3.75;2.10;;;;;;;14.55;69.01;101323.25;5113175;28;20023;-48
2022/09/23 11:26:52;;;;;;;6.43;2.20;;;;;;;14.65;68.37;101327.09;5013935;28;20179;-49
2022/09/23 11:29:34;;;;;;;3.55;2.58;;;;;;;14.62;68.56;101321.34;5076394;28;20028;-50
2022/09/23 11:32:15;;;;;;;5.85;2.47;;;;;;;14.34;69.55;101324.44;5084202;28;20062;-48
2022/09/23 11:35:02;;;;;;;4.05;2.25;;;;;;;14.06;70.73;101325.69;5090297;28;20151;-50
2022/09/23 11:37:36;;;;;;;5.75;2.20;;;;;;;14.23;70.24;101320.59;5086670;28;20380;-48
2022/09/23 11:40:27;;;;;;;3.45;1.95;;;;;;;13.92;71.63;101329.47;5092156;28;20035;-50
2022/09/23 11:43:06;;;;;;;6.07;2.08;;;;;;;14.09;70.92;101322.53;5092817;28;20032;-50
2022/09/23 11:46:08;;;;;;;6.03;2.10;;;;;;;14.21;70.36;101330.72;5093045;28;20027;-48
2022/09/23 11:48:47;;;;;;;3.97;2.20;;;;;;;14.11;70.93;101327.72;5079747;28;20601;-47
2022/09/23 11:51:52;;;;;;;4.88;2.15;;;;;;;14.27;70.20;101333.41;5072395;28;20384;-47
2022/09/23 11:54:25;;;;;;;4.07;2.03;;;;;;;14.04;71.49;101335.00;5034627;28;20036;-47
2022/09/23 11:57:00;;;;;;;5.25;2.03;;;;;;;14.05;71.37;101325.88;5072034;28;20031;-47
2022/09/23 11:59:50;;;;;;;2.03;1.83;;;;;;;14.19;70.62;101327.44;5071694;28;20020;-50
2022/09/23 12:02:38;;;;;;;3.72;2.47;;;;;;;14.22;70.88;101327.03;5083684;28;20028;-47
2022/09/23 12:05:09;;;;;;;7.38;2.55;;;;;;;13.86;72.26;101325.78;5071989;28;20031;-47